Time;durP1;ratioP1;P1;durP2;ratioP2;P2;SDS_P1;SDS_P2;PMS_P1;PMS_P2;Temp;Humidity;BMP_temperature;BMP_pressure;BME280_temperature;BME280_humidity;BME280_pressure;Samples;Min_cycle;Max_cycle;Signal;HPM_P1;HPM_P2
2023/02/17 00:01:32;;;;;;;11.18;7.85;;;;;;;9.74;100.00;101851.44;5105687;27;20135;-68
2023/02/17 00:04:00;;;;;;;10.63;7.82;;;;;;;9.74;100.00;101856.88;5115212;28;20052;-68
2023/02/17 00:06:31;;;;;;;10.15;7.85;;;;;;;9.76;100.00;101849.28;5114585;28;20491;-68
2023/02/17 00:09:00;;;;;;;10.05;7.63;;;;;;;9.78;100.00;101847.16;5107942;28;20040;-69
2023/02/17 00:11:28;;;;;;;10.60;6.97;;;;;;;9.79;100.00;101837.13;5099736;27;20072;-69
2023/02/17 00:13:56;;;;;;;9.30;6.53;;;;;;;9.80;100.00;101838.78;5097904;28;20075;-68
2023/02/17 00:16:27;;;;;;;8.57;6.68;;;;;;;9.78;100.00;101836.28;5116159;28;20047;-68
2023/02/17 00:18:57;;;;;;;8.77;6.60;;;;;;;9.78;100.00;101835.44;5110661;28;20074;-68
2023/02/17 00:21:30;;;;;;;10.10;6.57;;;;;;;9.76;100.00;101846.56;5094378;28;20079;-69
2023/02/17 00:23:58;;;;;;;9.13;6.25;;;;;;;9.77;100.00;101833.81;5114577;28;20043;-69
2023/02/17 00:26:26;;;;;;;7.85;5.80;;;;;;;9.77;100.00;101826.47;5116273;28;20051;-68
2023/02/17 00:28:53;;;;;;;8.25;5.95;;;;;;;9.79;100.00;101835.22;5113812;27;20044;-69
2023/02/17 00:31:22;;;;;;;7.90;5.05;;;;;;;9.80;100.00;101825.16;5111202;28;20513;-68
2023/02/17 00:33:54;;;;;;;8.10;4.88;;;;;;;9.85;100.00;101827.16;5114388;28;20039;-68
2023/02/17 00:36:22;;;;;;;7.80;5.00;;;;;;;9.82;100.00;101826.56;5098075;28;20075;-69
2023/02/17 00:38:50;;;;;;;6.55;4.63;;;;;;;9.83;100.00;101819.22;5114977;28;20050;-69
2023/02/17 00:41:18;;;;;;;7.50;4.85;;;;;;;9.82;100.00;101826.56;5113591;28;20055;-68
2023/02/17 00:43:47;;;;;;;8.90;4.80;;;;;;;9.85;100.00;101819.81;5113583;28;20039;-69
2023/02/17 00:46:16;;;;;;;7.68;5.13;;;;;;;9.85;100.00;101817.09;5077169;28;20048;-68
2023/02/17 00:48:45;;;;;;;6.85;5.00;;;;;;;9.84;100.00;101811.88;5077518;28;20051;-69
2023/02/17 00:51:13;;;;;;;9.05;5.70;;;;;;;9.84;100.00;101812.75;5101896;28;20519;-70
2023/02/17 00:53:41;;;;;;;7.20;5.43;;;;;;;9.82;100.00;101802.06;5094620;28;20079;-70
2023/02/17 00:56:09;;;;;;;8.10;5.28;;;;;;;9.82;100.00;101812.97;5077133;28;20079;-71
2023/02/17 00:58:37;;;;;;;7.50;5.75;;;;;;;9.84;100.00;101809.16;5095244;28;20492;-70
2023/02/17 01:01:05;;;;;;;8.65;6.35;;;;;;;9.86;100.00;101815.19;5099983;28;20419;-70
2023/02/17 01:03:33;;;;;;;9.02;6.97;;;;;;;9.87;100.00;101825.03;5063576;28;20127;-70
2023/02/17 01:06:09;;;;;;;8.55;7.15;;;;;;;9.90;100.00;101816.38;5113022;28;20044;-70
2023/02/17 01:08:36;;;;;;;10.35;8.45;;;;;;;9.90;100.00;101810.94;5112953;28;20123;-70
2023/02/17 01:11:04;;;;;;;10.05;8.15;;;;;;;9.92;100.00;101822.44;5110301;28;20047;-70
2023/02/17 01:13:32;;;;;;;11.18;9.30;;;;;;;9.89;100.00;101814.75;5080026;28;20036;-70
2023/02/17 01:16:00;;;;;;;11.65;9.68;;;;;;;9.90;100.00;101824.56;5114888;28;20134;-70
2023/02/17 01:18:28;;;;;;;10.40;9.10;;;;;;;9.89;100.00;101814.75;5113452;28;20100;-70
2023/02/17 01:20:55;;;;;;;12.18;10.77;;;;;;;9.90;100.00;101813.66;5096868;28;20051;-70
2023/02/17 01:23:23;;;;;;;13.65;11.90;;;;;;;9.89;100.00;101809.31;5114130;28;20126;-70
2023/02/17 01:25:52;;;;;;;14.43;12.93;;;;;;;9.89;100.00;101815.56;5118384;28;20449;-70
2023/02/17 01:28:21;;;;;;;14.35;12.85;;;;;;;9.90;100.00;101805.50;5117638;28;20090;-70
2023/02/17 01:30:49;;;;;;;13.23;11.48;;;;;;;9.91;100.00;101804.41;5104898;28;20050;-70
2023/02/17 01:33:17;;;;;;;15.10;12.40;;;;;;;9.91;100.00;101807.13;5099689;27;20044;-70
2023/02/17 01:35:45;;;;;;;13.15;11.27;;;;;;;9.92;100.00;101798.75;5098107;27;20097;-70
2023/02/17 01:38:12;;;;;;;13.13;11.75;;;;;;;9.94;100.00;101795.78;5097207;28;20040;-70
2023/02/17 01:40:47;;;;;;;12.95;11.30;;;;;;;9.95;100.00;101797.44;5079983;28;20130;-71
2023/02/17 01:43:16;;;;;;;12.13;10.18;;;;;;;9.95;100.00;101802.88;5100014;27;20079;-71
2023/02/17 01:45:52;;;;;;;12.27;9.55;;;;;;;9.95;100.00;101803.69;5100838;28;20051;-70
2023/02/17 01:48:42;;;;;;;11.75;8.95;;;;;;;9.95;100.00;101794.72;5100618;28;20545;-70
2023/02/17 01:51:23;;;;;;;10.38;8.75;;;;;;;9.95;100.00;101800.97;5117680;28;20059;-70
2023/02/17 01:54:08;;;;;;;12.23;8.73;;;;;;;9.96;100.00;101796.38;5107920;27;20071;-70
2023/02/17 01:56:37;;;;;;;;;;;;;;;9.98;100.00;101807.84;5091501;28;20040;-70
2023/02/17 01:59:11;;;;;;;10.52;8.30;;;;;;;9.96;100.00;101804.56;5097676;28;19971;-69
2023/02/17 02:01:39;;;;;;;9.98;7.07;;;;;;;10.00;100.00;101811.16;5065104;28;20040;-70
2023/02/17 02:04:08;;;;;;;9.75;7.40;;;;;;;9.97;100.00;101812.47;5098030;28;20043;-70
2023/02/17 02:06:42;;;;;;;8.95;7.15;;;;;;;9.96;100.00;101808.09;5098819;28;20054;-70
2023/02/17 02:09:29;;;;;;;8.60;6.93;;;;;;;9.95;100.00;101816.50;5099080;28;20056;-70
2023/02/17 02:11:59;;;;;;;9.45;7.43;;;;;;;9.95;100.00;101809.16;5101035;28;20395;-70
2023/02/17 02:14:31;;;;;;;9.85;7.63;;;;;;;9.94;100.00;101812.94;5117722;28;20050;-70
2023/02/17 02:17:11;;;;;;;10.35;7.82;;;;;;;9.94;100.00;101812.13;5100878;28;20051;-69
2023/02/17 02:20:07;;;;;;;10.10;7.90;;;;;;;9.94;100.00;101807.50;5113664;28;20044;-70
2023/02/17 02:23:18;;;;;;;9.60;7.72;;;;;;;9.95;100.00;101800.16;5096979;28;20044;-69
2023/02/17 02:26:04;;;;;;;9.20;7.63;;;;;;;9.96;100.00;101785.50;5051796;28;20057;-66
2023/02/17 02:28:55;;;;;;;12.38;9.40;;;;;;;9.94;100.00;101787.63;5093294;28;20070;-69
2023/02/17 02:31:41;;;;;;;11.23;8.68;;;;;;;9.95;100.00;101789.28;5111082;28;20055;-66
2023/02/17 02:34:16;;;;;;;11.57;9.07;;;;;;;9.94;100.00;101780.28;5111690;28;20047;-68
2023/02/17 02:37:10;;;;;;;10.82;9.38;;;;;;;9.94;100.00;101771.28;5118235;27;20059;-69
2023/02/17 02:39:42;;;;;;;14.07;9.82;;;;;;;9.95;100.00;101770.22;5092530;28;20369;-68
2023/02/17 02:42:15;;;;;;;11.90;9.38;;;;;;;9.94;100.00;101761.22;5064913;28;20043;-68
2023/02/17 02:44:43;;;;;;;11.63;9.50;;;;;;;9.93;100.00;101758.72;5101854;28;20072;-69
2023/02/17 02:47:30;;;;;;;10.65;8.90;;;;;;;9.93;100.00;101748.69;5069502;28;20055;-69
2023/02/17 02:49:58;;;;;;;10.43;8.70;;;;;;;9.94;100.00;101738.63;5104600;28;20047;-68
2023/02/17 02:52:44;;;;;;;12.68;9.93;;;;;;;9.92;100.00;101735.31;5095390;28;20044;-69
2023/02/17 02:55:28;;;;;;;12.18;9.32;;;;;;;9.97;100.00;101729.97;5063348;28;20063;-69
2023/02/17 02:58:10;;;;;;;12.40;10.20;;;;;;;9.95;100.00;101722.03;5090330;28;20082;-69
2023/02/17 03:00:53;;;;;;;11.98;10.38;;;;;;;9.93;100.00;101728.78;5102232;28;20050;-69
2023/02/17 03:03:46;;;;;;;14.10;11.27;;;;;;;9.92;100.00;101722.53;5114168;28;20052;-69
2023/02/17 03:06:43;;;;;;;13.45;10.90;;;;;;;9.92;100.00;101724.44;5099083;28;20391;-69
2023/02/17 03:09:31;;;;;;;13.57;10.05;;;;;;;9.92;100.00;101741.56;5115371;28;20051;-69
2023/02/17 03:11:59;;;;;;;12.32;11.02;;;;;;;9.96;100.00;101728.31;5097868;28;20047;-69
2023/02/17 03:14:35;;;;;;;14.07;11.70;;;;;;;9.95;100.00;101729.38;5076614;28;20059;-69
2023/02/17 03:17:04;;;;;;;13.00;11.27;;;;;;;9.93;100.00;101723.34;5078026;28;20118;-68
2023/02/17 03:19:32;;;;;;;13.52;11.48;;;;;;;9.98;100.00;101737.06;5089486;28;20044;-69
2023/02/17 03:22:30;;;;;;;11.05;8.40;;;;;;;9.98;100.00;101726.16;5108261;28;20036;-69
2023/02/17 03:25:00;;;;;;;12.52;10.38;;;;;;;9.94;100.00;101730.47;5072704;28;20094;-69
2023/02/17 03:27:30;;;;;;;13.27;11.25;;;;;;;9.91;100.00;101741.81;5080387;28;20488;-69
2023/02/17 03:29:58;;;;;;;13.93;11.85;;;;;;;9.89;100.00;101730.34;5110524;27;20043;-69
2023/02/17 03:32:25;;;;;;;11.82;9.43;;;;;;;9.95;100.00;101729.38;5116646;28;20058;-69
2023/02/17 03:34:53;;;;;;;13.95;11.55;;;;;;;9.96;100.00;101736.50;5104833;28;20036;-69
2023/02/17 03:37:23;;;;;;;12.18;9.85;;;;;;;9.95;100.00;101718.50;5094661;28;20491;-69
2023/02/17 03:39:51;;;;;;;14.95;13.23;;;;;;;9.95;100.00;101721.22;5097402;27;20109;-69
2023/02/17 03:42:19;;;;;;;15.63;13.88;;;;;;;9.94;100.00;101723.13;5096064;28;20056;-70
2023/02/17 03:44:47;;;;;;;15.85;13.13;;;;;;;9.93;100.00;101724.19;5077680;28;20082;-69
2023/02/17 03:47:15;;;;;;;13.70;11.38;;;;;;;9.93;100.00;101723.34;5095578;28;20079;-68
2023/02/17 03:49:43;;;;;;;15.88;12.75;;;;;;;9.91;100.00;101722.75;5096329;27;20055;-70
2023/02/17 03:52:10;;;;;;;13.48;11.93;;;;;;;9.91;100.00;101715.44;5116203;28;20043;-69
2023/02/17 03:54:38;;;;;;;14.38;11.68;;;;;;;9.91;100.00;101709.13;5097571;28;20127;-69
2023/02/17 03:57:06;;;;;;;12.38;10.80;;;;;;;9.98;100.00;101709.81;5096054;28;20055;-69
2023/02/17 03:59:33;;;;;;;12.60;11.15;;;;;;;9.94;100.00;101705.97;5061932;28;20087;-69
2023/02/17 04:02:01;;;;;;;14.10;10.70;;;;;;;9.96;100.00;101712.81;5096459;27;20040;-69
2023/02/17 04:04:29;;;;;;;14.20;12.02;;;;;;;9.93;100.00;101717.91;5095993;28;20044;-68
2023/02/17 04:06:57;;;;;;;12.85;10.98;;;;;;;9.95;100.00;101721.22;5097047;28;20040;-69
2023/02/17 04:09:25;;;;;;;12.90;10.18;;;;;;;9.93;100.00;101712.44;5095966;28;20054;-69
2023/02/17 04:11:53;;;;;;;12.43;9.73;;;;;;;9.92;100.00;101716.25;5079615;28;20093;-69
2023/02/17 04:14:20;;;;;;;12.50;9.52;;;;;;;9.96;100.00;101720.97;5095842;28;20067;-69
2023/02/17 04:16:48;;;;;;;11.73;9.25;;;;;;;9.94;100.00;101708.69;5093628;28;20091;-69
2023/02/17 04:19:16;;;;;;;11.20;9.73;;;;;;;9.92;100.00;101706.19;5112809;28;20044;-69
2023/02/17 04:21:45;;;;;;;10.85;8.90;;;;;;;9.98;100.00;101709.81;5110227;28;20506;-69
2023/02/17 04:24:13;;;;;;;11.38;9.13;;;;;;;9.98;100.00;101705.22;5094646;28;20040;-69
2023/02/17 04:26:40;;;;;;;12.98;9.60;;;;;;;9.96;100.00;101720.16;5095682;28;20073;-69
2023/02/17 04:29:08;;;;;;;11.05;8.50;;;;;;;9.99;100.00;101722.38;5095621;28;20068;-69
2023/02/17 04:31:36;;;;;;;11.35;8.43;;;;;;;9.98;100.00;101715.28;5095500;28;20102;-68
2023/02/17 04:34:04;;;;;;;12.05;9.05;;;;;;;9.95;100.00;101708.41;5107685;28;20398;-69
2023/02/17 04:36:31;;;;;;;10.63;7.93;;;;;;;9.95;100.00;101713.03;5092739;28;20087;-68
2023/02/17 04:38:59;;;;;;;9.95;8.48;;;;;;;10.10;100.00;101713.38;5111188;28;20036;-68
2023/02/17 04:41:27;;;;;;;12.18;9.05;;;;;;;10.02;100.00;101722.72;5112351;28;20052;-68
2023/02/17 04:43:56;;;;;;;10.57;8.10;;;;;;;10.01;100.00;101720.25;5106394;28;20439;-69
2023/02/17 04:46:24;;;;;;;11.55;8.35;;;;;;;10.02;100.00;101724.63;5095153;28;20048;-68
2023/02/17 04:48:52;;;;;;;12.10;8.35;;;;;;;9.98;100.00;101718.84;5112918;28;20122;-69
2023/02/17 04:51:20;;;;;;;12.05;9.15;;;;;;;9.96;100.00;101714.72;5112596;28;20062;-69
2023/02/17 04:53:47;;;;;;;11.27;8.68;;;;;;;9.94;100.00;101714.94;5108266;28;20044;-69
2023/02/17 04:56:15;;;;;;;10.98;8.18;;;;;;;9.95;100.00;101713.03;5109968;28;20551;-69
2023/02/17 04:58:43;;;;;;;12.52;8.60;;;;;;;9.95;100.00;101721.22;5115799;28;20035;-68
2023/02/17 05:01:11;;;;;;;10.52;8.13;;;;;;;9.95;100.00;101718.50;5097633;28;20071;-69
2023/02/17 05:03:38;;;;;;;9.93;8.13;;;;;;;9.98;100.00;101698.94;5096590;28;20040;-69
2023/02/17 05:06:06;;;;;;;13.25;9.75;;;;;;;9.97;100.00;101691.84;5095790;28;20090;-69
2023/02/17 05:08:34;;;;;;;11.80;8.70;;;;;;;9.96;100.00;101693.75;5097457;28;20499;-69
2023/02/17 05:11:02;;;;;;;11.10;7.82;;;;;;;10.02;100.00;101694.66;5098156;28;20082;-69
2023/02/17 05:13:32;;;;;;;12.40;7.90;;;;;;;9.98;100.00;101704.38;5116158;28;20047;-69
2023/02/17 05:15:59;;;;;;;9.50;7.47;;;;;;;10.03;100.00;101701.78;5112940;28;20555;-68
2023/02/17 05:18:27;;;;;;;11.95;7.80;;;;;;;10.01;100.00;101693.84;5117627;28;20040;-69
2023/02/17 05:20:55;;;;;;;11.20;8.07;;;;;;;9.96;100.00;101691.03;5104663;27;20048;-69
2023/02/17 05:23:23;;;;;;;11.73;8.00;;;;;;;9.96;100.00;101690.22;5096289;28;20051;-69
2023/02/17 05:25:51;;;;;;;10.90;7.85;;;;;;;9.95;100.00;101704.88;5096718;28;20105;-69
2023/02/17 05:28:19;;;;;;;8.90;5.75;;;;;;;9.95;100.00;101699.44;5095267;28;20110;-69
2023/02/17 05:30:48;;;;;;;11.38;8.07;;;;;;;9.95;100.00;101704.88;5095452;28;20515;-69
2023/02/17 05:33:16;;;;;;;11.70;7.05;;;;;;;9.94;100.00;101700.50;5095263;28;20124;-69
2023/02/17 05:35:44;;;;;;;9.07;5.75;;;;;;;9.95;100.00;101704.88;5112510;28;20056;-68
2023/02/17 05:38:12;;;;;;;11.45;7.57;;;;;;;9.96;100.00;101707.38;5116477;28;20109;-69
2023/02/17 05:40:40;;;;;;;10.88;6.90;;;;;;;9.96;100.00;101701.09;5114929;27;20043;-69
2023/02/17 05:43:08;;;;;;;10.25;6.40;;;;;;;9.96;100.00;101709.28;5097469;28;20048;-69
2023/02/17 05:45:35;;;;;;;11.65;8.05;;;;;;;9.95;100.00;101715.75;5099081;28;20032;-69
2023/02/17 05:48:03;;;;;;;9.30;7.25;;;;;;;9.94;100.00;101708.69;5100583;28;20044;-68
2023/02/17 05:50:34;;;;;;;9.90;7.40;;;;;;;9.96;100.00;101715.53;5099565;28;20091;-69
2023/02/17 05:53:02;;;;;;;10.77;7.47;;;;;;;9.96;100.00;101709.28;5109208;28;20052;-68
2023/02/17 05:55:30;;;;;;;10.80;7.32;;;;;;;9.96;100.00;101706.53;5099585;28;20044;-69
2023/02/17 05:57:58;;;;;;;9.32;6.80;;;;;;;9.94;100.00;101700.50;5100233;28;20042;-68
2023/02/17 06:00:25;;;;;;;9.25;6.60;;;;;;;9.97;100.00;101700.03;5114451;27;20060;-68
2023/02/17 06:02:53;;;;;;;9.70;7.03;;;;;;;9.97;100.00;101703.56;5105863;28;20130;-66
2023/02/17 06:05:21;;;;;;;11.68;7.05;;;;;;;10.01;100.00;101703.94;5109333;28;20048;-69
2023/02/17 06:07:49;;;;;;;12.18;7.30;;;;;;;10.03;100.00;101701.78;4404253;28;10000176;-67
2023/02/17 06:10:19;;;;;;;11.05;7.22;;;;;;;10.08;100.00;101677.38;5128511;27;20376;-69
2023/02/17 06:12:47;;;;;;;10.43;7.28;;;;;;;10.01;100.00;101703.94;5130822;28;20104;-68
2023/02/17 06:15:15;;;;;;;12.05;8.02;;;;;;;9.97;100.00;101700.03;5131672;28;20108;-63
2023/02/17 06:17:43;;;;;;;10.48;7.45;;;;;;;9.97;100.00;101697.31;5131642;28;20051;-62
2023/02/17 06:20:12;;;;;;;11.70;7.90;;;;;;;9.93;100.00;101704.28;5135894;27;20066;-62
2023/02/17 06:22:41;;;;;;;9.60;7.05;;;;;;;9.92;100.00;101699.94;5134060;27;20039;-66
2023/02/17 06:25:09;;;;;;;11.40;8.27;;;;;;;9.97;100.00;101697.31;5148588;27;20040;-68
2023/02/17 06:27:37;;;;;;;14.18;8.88;;;;;;;9.96;100.00;101699.19;5139845;27;20051;-66
2023/02/17 06:30:06;;;;;;;12.57;8.77;;;;;;;9.98;100.00;101693.50;5137913;27;20043;-69
2023/02/17 06:32:33;;;;;;;13.32;9.68;;;;;;;9.90;100.00;101683.00;5114639;28;20051;-67
2023/02/17 06:35:01;;;;;;;14.25;10.55;;;;;;;9.86;100.00;101684.53;5113363;28;20051;-68
2023/02/17 06:37:29;;;;;;;13.80;10.05;;;;;;;9.84;100.00;101681.22;5112064;28;20048;-68
2023/02/17 06:39:57;;;;;;;13.18;10.40;;;;;;;9.82;100.00;101679.59;5112622;28;20515;-67
2023/02/17 06:42:25;;;;;;;14.63;10.63;;;;;;;9.82;100.00;101679.59;5113042;27;20134;-68
2023/02/17 06:44:53;;;;;;;14.93;11.27;;;;;;;9.80;100.00;101684.44;5109725;27;20101;-69
2023/02/17 06:47:21;;;;;;;15.85;11.73;;;;;;;9.80;100.00;101689.88;5093243;28;20483;-66
2023/02/17 06:49:48;;;;;;;15.25;11.32;;;;;;;9.81;100.00;101685.28;5102614;28;20054;-68
2023/02/17 06:52:16;;;;;;;14.57;11.30;;;;;;;9.81;100.00;101679.81;5110071;28;20097;-68
2023/02/17 06:54:46;;;;;;;17.33;11.93;;;;;;;9.85;100.00;101691.06;5077542;28;20385;-70
2023/02/17 06:57:13;;;;;;;16.15;11.70;;;;;;;9.85;100.00;101694.63;5093376;28;20044;-70
2023/02/17 06:59:41;;;;;;;16.85;10.95;;;;;;;9.89;100.00;101689.53;5111952;28;20066;-69
2023/02/17 07:02:11;;;;;;;11.93;7.95;;;;;;;9.90;100.00;101700.16;5117619;27;20101;-68
2023/02/17 07:04:40;;;;;;;16.02;12.18;;;;;;;9.92;100.00;101703.47;5115013;28;20043;-70
2023/02/17 07:07:08;;;;;;;15.30;11.77;;;;;;;9.92;100.00;101697.19;5093059;28;20079;-69
2023/02/17 07:09:37;;;;;;;23.15;10.77;;;;;;;9.94;100.00;101686.91;5070783;28;20412;-69
2023/02/17 07:12:06;;;;;;;14.27;10.18;;;;;;;9.96;100.00;101682.88;5092773;28;20552;-69
2023/02/17 07:14:36;;;;;;;15.95;11.00;;;;;;;9.96;100.00;101674.69;5075487;28;20044;-69
2023/02/17 07:17:04;;;;;;;15.73;11.00;;;;;;;9.99;100.00;101676.09;5093164;28;20047;-69
2023/02/17 07:19:32;;;;;;;14.25;9.10;;;;;;;10.04;100.00;101678.94;5079983;28;20153;-69
2023/02/17 07:22:01;;;;;;;12.32;8.93;;;;;;;10.08;100.00;101688.28;5093747;28;20063;-69
2023/02/17 07:24:29;;;;;;;15.82;9.13;;;;;;;10.06;100.00;101675.97;5115148;28;20104;-68
2023/02/17 07:26:56;;;;;;;13.95;9.63;;;;;;;10.07;100.00;101672.97;5113334;28;20047;-69
2023/02/17 07:29:24;;;;;;;16.33;10.30;;;;;;;10.08;100.00;101687.41;5109452;28;20480;-69
2023/02/17 07:31:52;;;;;;;14.13;8.93;;;;;;;10.15;100.00;101677.19;5114776;28;20486;-68
2023/02/17 07:34:19;;;;;;;14.77;9.35;;;;;;;10.16;100.00;101685.13;5113248;28;20077;-69
2023/02/17 07:36:47;;;;;;;13.07;9.75;;;;;;;10.18;100.00;101674.84;5080119;28;20044;-69
2023/02/17 07:39:15;;;;;;;13.07;9.13;;;;;;;10.16;100.00;101674.25;5101771;27;20058;-68
2023/02/17 07:41:42;;;;;;;13.30;9.20;;;;;;;10.19;100.00;101657.41;5108210;27;20048;-70
2023/02/17 07:44:10;;;;;;;13.63;9.45;;;;;;;10.24;100.00;101676.56;5096555;28;20052;-69
2023/02/17 07:46:38;;;;;;;15.00;8.27;;;;;;;10.20;100.00;101667.25;5114852;28;20047;-70
2023/02/17 07:49:06;;;;;;;14.32;8.38;;;;;;;10.22;100.00;101670.56;5096928;28;20136;-69
2023/02/17 07:51:34;;;;;;;13.23;8.60;;;;;;;10.22;100.00;101678.72;5093235;28;20441;-67
2023/02/17 07:54:01;;;;;;;13.57;8.98;;;;;;;10.23;100.00;101666.75;5093039;28;20168;-69
2023/02/17 07:56:29;;;;;;;16.77;8.48;;;;;;;10.23;100.00;101658.59;5093708;28;20055;-69
2023/02/17 07:58:57;;;;;;;23.38;8.32;;;;;;;10.29;100.00;101659.53;5094753;28;20128;-68
2023/02/17 08:01:25;;;;;;;14.70;9.43;;;;;;;10.29;100.00;101664.16;5093357;28;20051;-68
2023/02/17 08:03:54;;;;;;;16.02;8.88;;;;;;;10.36;100.00;101646.56;5094952;28;20059;-69
2023/02/17 08:06:23;;;;;;;13.52;9.55;;;;;;;10.31;100.00;101662.00;5095839;28;20048;-67
2023/02/17 08:14:28;;;;;;;13.55;9.63;;;;;;;10.30;100.00;101679.44;5079522;28;20044;-68
2023/02/17 08:16:56;;;;;;;15.18;9.30;;;;;;;10.35;100.00;101666.72;5094556;28;20044;-68
2023/02/17 08:19:25;;;;;;;13.20;10.02;;;;;;;10.33;100.00;101662.59;5094046;28;20056;-68
2023/02/17 08:21:56;;;;;;;16.92;10.15;;;;;;;10.35;100.00;101661.28;5094538;28;20051;-67
2023/02/17 08:24:24;;;;;;;12.45;10.27;;;;;;;10.31;100.00;101662.00;5095053;28;20044;-67
2023/02/17 08:26:52;;;;;;;17.52;9.85;;;;;;;10.32;100.00;101677.28;5094968;28;20559;-68
2023/02/17 08:29:20;;;;;;;13.48;9.82;;;;;;;10.35;100.00;101679.53;5093338;28;20432;-68
2023/02/17 08:31:52;;;;;;;14.50;9.95;;;;;;;10.38;100.00;101676.31;5085188;28;20044;-68
2023/02/17 08:34:20;;;;;;;17.20;10.40;;;;;;;10.47;100.00;101674.81;5114168;28;20058;-68
2023/02/17 08:36:48;;;;;;;15.15;10.60;;;;;;;10.48;100.00;101681.91;5114534;28;20050;-67
2023/02/17 08:39:17;;;;;;;13.05;10.38;;;;;;;10.48;100.00;101687.38;5096230;28;20039;-69
2023/02/17 08:41:45;;;;;;;13.57;10.20;;;;;;;10.47;100.00;101690.34;5105553;28;20036;-68
2023/02/17 08:44:18;;;;;;;12.50;9.75;;;;;;;10.49;100.00;101688.22;5091095;28;20079;-66
2023/02/17 08:46:47;;;;;;;20.70;9.98;;;;;;;10.51;100.00;101683.31;5094007;28;20136;-66
2023/02/17 08:49:16;;;;;;;15.80;8.43;;;;;;;10.56;100.00;101689.72;5092314;28;20411;-67
2023/02/17 08:51:44;;;;;;;15.45;8.95;;;;;;;10.52;100.00;101699.44;5103725;28;20066;-68
2023/02/17 08:54:12;;;;;;;11.80;8.85;;;;;;;10.50;100.00;101696.13;5109276;28;20410;-68
2023/02/17 08:56:41;;;;;;;11.38;8.38;;;;;;;10.50;100.00;101693.41;5108129;28;20036;-68
2023/02/17 08:59:09;;;;;;;11.52;7.85;;;;;;;10.51;100.00;101702.41;5096298;28;20126;-66
2023/02/17 09:01:38;;;;;;;9.77;8.30;;;;;;;10.51;100.00;101708.69;5092092;28;20083;-68
2023/02/17 09:04:07;;;;;;;11.32;8.32;;;;;;;10.49;100.00;101710.00;5109676;28;20100;-68
2023/02/17 09:06:41;;;;;;;12.20;8.13;;;;;;;10.47;100.00;101701.25;5109549;28;20161;-67
2023/02/17 09:09:11;;;;;;;14.35;8.13;;;;;;;10.48;100.00;101711.06;5110325;28;20042;-68
2023/02/17 09:11:39;;;;;;;12.05;8.00;;;;;;;10.55;100.00;101715.28;5109002;28;20655;-68
2023/02/17 09:14:07;;;;;;;11.95;8.63;;;;;;;10.54;100.00;101735.44;5112884;28;20051;-68
2023/02/17 09:16:35;;;;;;;10.75;7.18;;;;;;;10.57;100.00;101745.03;5109132;28;20052;-68
2023/02/17 09:19:03;;;;;;;11.23;7.80;;;;;;;10.58;100.00;101741.22;5112404;28;20372;-66
2023/02/17 09:21:31;;;;;;;11.27;7.95;;;;;;;10.56;100.00;101749.66;5112787;28;20302;-66
2023/02/17 09:23:59;;;;;;;9.57;7.38;;;;;;;10.57;100.00;101754.03;5088619;28;20044;-65
2023/02/17 09:26:26;;;;;;;10.15;8.18;;;;;;;10.57;100.00;101758.66;5097361;28;20096;-66
2023/02/17 09:28:56;;;;;;;9.77;6.88;;;;;;;10.59;100.00;101743.72;5095814;28;20447;-66
2023/02/17 09:31:28;;;;;;;10.70;7.47;;;;;;;10.62;100.00;101750.56;5113955;28;20445;-66
2023/02/17 09:33:56;;;;;;;10.65;7.60;;;;;;;10.61;100.00;101749.75;5110887;28;20047;-66
2023/02/17 09:36:27;;;;;;;9.95;7.05;;;;;;;10.63;100.00;101750.34;5091875;28;20058;-66
2023/02/17 09:38:55;;;;;;;10.93;7.70;;;;;;;10.64;100.00;101734.78;5097423;28;20118;-68
2023/02/17 09:41:26;;;;;;;9.25;7.05;;;;;;;10.63;100.00;101749.47;5112495;28;20054;-66
2023/02/17 09:43:54;;;;;;;9.52;7.82;;;;;;;10.68;100.00;101756.91;5114165;28;20055;-66
2023/02/17 09:46:37;;;;;;;9.52;7.53;;;;;;;10.71;100.00;101748.28;5093531;28;20044;-66
2023/02/17 09:49:21;;;;;;;9.95;7.90;;;;;;;10.68;100.00;101763.22;5096914;28;20093;-66
2023/02/17 09:52:12;;;;;;;9.77;7.55;;;;;;;10.68;100.00;101756.91;5065488;28;20044;-67
2023/02/17 09:55:02;;;;;;;10.23;7.88;;;;;;;10.71;100.00;101768.19;5098082;28;20056;-65
2023/02/17 09:57:45;;;;;;;16.60;8.95;;;;;;;10.78;100.00;101765.31;5095380;28;20070;-65
2023/02/17 10:00:17;;;;;;;8.80;6.53;;;;;;;10.76;100.00;101770.16;5087057;28;20048;-67
2023/02/17 10:02:51;;;;;;;9.88;6.90;;;;;;;10.77;100.00;101750.00;5101038;28;20059;-67
2023/02/17 10:05:22;;;;;;;9.52;6.93;;;;;;;10.76;100.00;101754.63;5108579;28;20544;-67
2023/02/17 10:08:00;;;;;;;8.90;6.63;;;;;;;10.79;100.00;101748.69;5123979;27;20051;-66
2023/02/17 10:10:34;;;;;;;10.18;6.35;;;;;;;10.81;100.00;101749.25;5113196;28;20040;-68
2023/02/17 10:13:02;;;;;;;8.10;5.95;;;;;;;10.84;100.00;101731.59;5096625;28;20048;-67
2023/02/17 10:15:35;;;;;;;9.20;6.32;;;;;;;10.88;100.00;101746.38;5097535;27;20040;-68
2023/02/17 10:18:25;;;;;;;8.57;5.60;;;;;;;10.88;100.00;101749.09;5125241;27;20047;-67
2023/02/17 10:21:22;;;;;;;14.18;6.88;;;;;;;10.94;100.00;101745.38;5102296;28;20574;-67
2023/02/17 10:23:50;;;;;;;11.55;6.78;;;;;;;11.00;100.00;101744.41;5114816;28;20044;-67
2023/02/17 10:26:46;;;;;;;7.63;5.43;;;;;;;11.03;100.00;101751.25;5114893;27;20068;-68
2023/02/17 10:29:36;;;;;;;12.20;5.90;;;;;;;11.02;100.00;101750.44;5096456;28;20056;-65
2023/02/17 10:32:09;;;;;;;6.93;5.00;;;;;;;11.01;100.00;101750.66;5094814;28;20048;-68
2023/02/17 10:34:44;;;;;;;5.95;4.30;;;;;;;11.00;100.00;101741.66;5096873;28;20119;-67
2023/02/17 10:37:23;;;;;;;5.95;4.40;;;;;;;11.00;100.00;101749.84;5116460;27;20044;-67
2023/02/17 10:40:01;;;;;;;7.38;4.50;;;;;;;11.00;100.00;101744.41;5115225;28;20199;-67
2023/02/17 10:42:37;;;;;;;8.90;5.22;;;;;;;11.09;100.00;101751.09;5116222;28;20066;-68
2023/02/17 10:45:30;;;;;;;6.53;4.60;;;;;;;11.11;100.00;101760.91;5115232;28;20037;-68
2023/02/17 10:48:02;;;;;;;7.18;4.25;;;;;;;11.08;100.00;101762.25;5110339;27;20075;-68
2023/02/17 10:50:30;;;;;;;6.28;4.53;;;;;;;11.03;100.00;101760.25;5094524;28;20044;-67
2023/02/17 10:52:58;;;;;;;6.95;4.43;;;;;;;11.01;100.00;101767.84;5095389;28;20075;-68
2023/02/17 10:55:39;;;;;;;5.90;4.10;;;;;;;11.01;100.00;101765.13;5095412;28;20495;-67
2023/02/17 10:58:14;;;;;;;9.82;4.40;;;;;;;11.02;100.00;101774.16;5095928;28;20052;-66
2023/02/17 11:00:44;;;;;;;8.95;4.40;;;;;;;11.08;100.00;101773.16;5095591;28;20546;-67
2023/02/17 11:03:31;;;;;;;9.00;4.70;;;;;;;11.03;100.00;101771.16;5084967;28;20043;-67
2023/02/17 11:06:02;;;;;;;6.82;3.70;;;;;;;11.04;100.00;101770.09;5116589;28;20082;-66
2023/02/17 11:08:39;;;;;;;9.43;4.60;;;;;;;11.08;100.00;101771.25;5109726;28;20050;-67
2023/02/17 11:11:29;;;;;;;7.57;4.70;;;;;;;11.13;100.00;101780.59;5115709;28;20075;-69
2023/02/17 11:14:23;;;;;;;5.80;4.53;;;;;;;11.05;100.00;101771.75;5114386;28;20046;-67
2023/02/17 11:16:59;;;;;;;6.95;4.88;;;;;;;11.01;100.00;101773.31;5112365;28;20051;-67
2023/02/17 11:19:27;;;;;;;8.60;4.55;;;;;;;11.01;100.00;101750.66;5114814;28;20139;-67
2023/02/17 11:21:58;;;;;;;8.25;4.43;;;;;;;11.03;100.00;101743.88;5115965;28;20051;-69
2023/02/17 11:24:26;;;;;;;5.97;4.30;;;;;;;11.04;100.00;101751.00;5094013;28;20398;-67
2023/02/17 11:27:09;;;;;;;7.03;4.28;;;;;;;11.08;100.00;101752.16;5095066;28;20131;-67
2023/02/17 11:29:37;;;;;;;5.85;4.15;;;;;;;11.11;100.00;101737.19;5101715;27;20035;-67
2023/02/17 11:32:09;;;;;;;7.97;5.05;;;;;;;11.12;100.00;101730.69;5111511;27;20120;-67
2023/02/17 11:34:42;;;;;;;6.35;4.75;;;;;;;11.12;100.00;101724.41;5113870;28;20131;-67
2023/02/17 11:37:13;;;;;;;7.80;5.40;;;;;;;11.12;100.00;101736.13;5101726;27;20411;-67
2023/02/17 11:39:55;;;;;;;7.30;5.13;;;;;;;11.14;100.00;101733.16;5113108;28;20070;-67